createdAt,value
2017-08-07T00:00:01.451Z,15.07
2017-08-07T00:01:01.434Z,15.11
2017-08-07T00:02:01.411Z,15.03
2017-08-07T00:03:01.389Z,14.98
2017-08-07T00:04:01.367Z,14.93
2017-08-07T00:05:01.347Z,14.98
2017-08-07T00:06:01.320Z,14.97
2017-08-07T00:07:01.302Z,14.87
2017-08-07T00:08:01.279Z,14.87
2017-08-07T00:09:01.256Z,14.85
2017-08-07T00:10:01.236Z,14.87
2017-08-07T00:11:01.218Z,14.93
2017-08-07T00:12:01.212Z,14.86
2017-08-07T00:13:00.923Z,14.91
2017-08-07T00:14:01.154Z,14.86
2017-08-07T00:15:01.136Z,14.9
2017-08-07T00:16:01.155Z,14.86
2017-08-07T00:17:01.089Z,14.9
2017-08-07T00:18:01.069Z,14.9
2017-08-07T00:19:01.044Z,14.8
2017-08-07T00:20:01.029Z,14.78
2017-08-07T00:21:01.011Z,14.78
2017-08-07T00:22:00.980Z,14.8
2017-08-07T00:23:00.968Z,14.79
2017-08-07T00:24:00.942Z,14.78
2017-08-07T00:25:00.921Z,14.61
2017-08-07T00:26:00.899Z,14.61
2017-08-07T00:27:00.882Z,14.66
2017-08-07T00:28:00.654Z,14.61
2017-08-07T00:29:00.835Z,14.64
2017-08-07T00:30:00.811Z,14.57
2017-08-07T00:31:00.790Z,14.69
2017-08-07T00:32:00.771Z,14.56
2017-08-07T00:33:00.804Z,14.54
2017-08-07T00:34:00.731Z,14.59
2017-08-07T00:35:00.716Z,14.59
2017-08-07T00:36:00.385Z,14.56
2017-08-07T00:37:00.668Z,14.56
2017-08-07T00:38:00.647Z,14.57
2017-08-07T00:39:00.629Z,14.56
2017-08-07T00:40:00.302Z,14.53
2017-08-07T00:41:00.582Z,14.52
2017-08-07T00:42:00.561Z,14.49
2017-08-07T00:43:00.534Z,14.54
2017-08-07T00:44:00.219Z,14.52
2017-08-07T00:45:00.500Z,14.53
2017-08-07T00:46:00.473Z,14.52
2017-08-07T00:47:00.455Z,14.52
2017-08-07T00:48:00.428Z,14.57
2017-08-07T00:49:00.411Z,14.54
2017-08-07T00:50:00.394Z,14.42
2017-08-07T00:51:00.364Z,14.38
2017-08-07T00:52:00.344Z,14.42
2017-08-07T00:53:00.324Z,14.41
2017-08-07T00:54:00.307Z,14.39
2017-08-07T00:54:59.980Z,14.27
2017-08-07T00:56:00.240Z,14.26
2017-08-07T00:57:00.257Z,14.29
2017-08-07T00:58:00.214Z,14.31
2017-08-07T00:59:00.199Z,14.29
2017-08-07T00:59:59.876Z,14.31
2017-08-07T01:01:00.155Z,14.31
2017-08-07T01:02:00.128Z,14.29
2017-08-07T01:03:00.110Z,14.31
2017-08-07T01:04:00.085Z,14.27
2017-08-07T01:05:00.065Z,14.29
2017-08-07T01:06:00.050Z,14.29
2017-08-07T01:07:00.034Z,14.27
2017-08-07T01:07:59.706Z,14.26
2017-08-07T01:08:59.982Z,14.3
2017-08-07T01:09:59.962Z,14.27
2017-08-07T01:10:59.944Z,14.27
2017-08-07T01:11:59.969Z,14.21
2017-08-07T01:12:59.894Z,14.27
2017-08-07T01:13:59.870Z,14.17
2017-08-07T01:14:59.856Z,14.23
2017-08-07T01:15:59.829Z,14.27
2017-08-07T01:16:59.512Z,14.2
2017-08-07T01:17:59.789Z,14.23
2017-08-07T01:18:59.777Z,14.21
2017-08-07T01:19:59.752Z,14.23
2017-08-07T01:20:59.738Z,14.13
2017-08-07T01:21:59.711Z,14.26
2017-08-07T01:22:59.687Z,14.17
2017-08-07T01:23:59.664Z,14.21
2017-08-07T01:24:59.643Z,14.24
2017-08-07T01:25:59.624Z,14.2
2017-08-07T01:26:59.599Z,14.11
2017-08-07T01:27:59.570Z,14.02
2017-08-07T01:28:59.559Z,14.09
2017-08-07T01:29:59.539Z,14.09
2017-08-07T01:30:59.527Z,14.09
2017-08-07T01:31:59.552Z,14.01
2017-08-07T01:32:59.474Z,14.05
2017-08-07T01:33:59.448Z,13.98
2017-08-07T01:34:59.433Z,14.05
2017-08-07T01:35:59.414Z,14.04
2017-08-07T01:36:59.390Z,14.02
2017-08-07T01:37:59.362Z,14.05
2017-08-07T01:38:59.344Z,14.01
2017-08-07T01:39:59.319Z,13.9
2017-08-07T01:40:59.298Z,13.96
2017-08-07T01:41:59.278Z,13.96
2017-08-07T01:42:59.261Z,13.87
2017-08-07T01:43:59.234Z,13.86
2017-08-07T01:44:59.215Z,13.86
2017-08-07T01:45:59.190Z,13.9
2017-08-07T01:46:59.174Z,13.73
2017-08-07T01:47:59.153Z,13.8
2017-08-07T01:48:59.159Z,13.71
2017-08-07T01:49:59.115Z,13.83
2017-08-07T01:50:58.783Z,13.75
2017-08-07T01:51:59.060Z,13.8
2017-08-07T01:52:59.050Z,13.75
2017-08-07T01:53:59.016Z,13.76
2017-08-07T01:54:59.007Z,13.8
2017-08-07T01:55:58.977Z,13.75
2017-08-07T01:56:58.957Z,13.73
2017-08-07T01:57:58.931Z,13.71
2017-08-07T01:58:58.916Z,13.71
2017-08-07T01:59:58.897Z,13.69
2017-08-07T02:00:58.871Z,13.69
2017-08-07T02:01:58.852Z,13.72
2017-08-07T02:02:58.827Z,13.68
2017-08-07T02:03:58.804Z,13.69
2017-08-07T02:04:58.789Z,13.68
2017-08-07T02:05:58.759Z,13.69
2017-08-07T02:06:58.744Z,13.63
2017-08-07T02:07:58.725Z,13.63
2017-08-07T02:08:58.696Z,13.68
2017-08-07T02:09:58.679Z,13.66
2017-08-07T02:10:58.655Z,13.63
2017-08-07T02:11:58.634Z,13.61
2017-08-07T02:12:58.604Z,13.55
2017-08-07T02:13:58.596Z,13.59
2017-08-07T02:14:58.579Z,13.54
2017-08-07T02:15:58.599Z,13.62
2017-08-07T02:16:58.526Z,13.62
2017-08-07T02:17:58.195Z,13.51
2017-08-07T02:18:58.230Z,13.59
2017-08-07T02:19:58.464Z,13.59
2017-08-07T02:20:58.443Z,13.46
2017-08-07T02:21:58.428Z,13.48
2017-08-07T02:22:58.401Z,13.46
2017-08-07T02:23:58.075Z,13.46
2017-08-07T02:24:58.374Z,13.51
2017-08-07T02:25:58.027Z,13.48
2017-08-07T02:26:58.310Z,13.48
2017-08-07T02:27:58.039Z,13.48
2017-08-07T02:28:58.265Z,13.44
2017-08-07T02:29:58.272Z,13.44
2017-08-07T02:30:58.227Z,13.5
2017-08-07T02:31:58.251Z,13.48
2017-08-07T02:32:58.187Z,13.43
2017-08-07T02:33:58.173Z,13.46
2017-08-07T02:34:58.138Z,13.41
2017-08-07T02:35:58.120Z,13.38
2017-08-07T02:36:58.087Z,13.38
2017-08-07T02:37:58.078Z,13.43
2017-08-07T02:38:58.099Z,13.36
2017-08-07T02:39:58.034Z,13.35
2017-08-07T02:40:58.005Z,13.41
2017-08-07T02:41:57.984Z,13.43
2017-08-07T02:42:57.661Z,13.44
2017-08-07T02:43:57.941Z,13.38
2017-08-07T02:44:57.926Z,13.32
2017-08-07T02:45:57.906Z,13.25
2017-08-07T02:46:57.882Z,13.27
2017-08-07T02:47:57.855Z,13.22
2017-08-07T02:48:57.835Z,13.17
2017-08-07T02:49:57.808Z,13.21
2017-08-07T02:50:57.799Z,13.17
2017-08-07T02:51:57.820Z,13.16
2017-08-07T02:52:57.757Z,13.13
2017-08-07T02:53:57.431Z,13.13
2017-08-07T02:54:57.704Z,13.16
2017-08-07T02:55:57.681Z,13.1
2017-08-07T02:56:57.665Z,13.14
2017-08-07T02:57:57.643Z,13.1
2017-08-07T02:58:57.628Z,13.14
2017-08-07T02:59:57.598Z,13.09
2017-08-07T03:00:57.635Z,13.13
2017-08-07T03:01:57.553Z,13.17
2017-08-07T03:02:57.580Z,13.07
2017-08-07T03:03:57.557Z,13.03
2017-08-07T03:04:57.486Z,13.09
2017-08-07T03:05:57.466Z,13.09
2017-08-07T03:06:57.443Z,13.13
2017-08-07T03:07:57.420Z,13.13
2017-08-07T03:08:57.415Z,13.1
2017-08-07T03:09:57.383Z,13.16
2017-08-07T03:10:57.360Z,13.09
2017-08-07T03:11:57.338Z,13.09
2017-08-07T03:12:57.362Z,13.13
2017-08-07T03:13:57.297Z,13.04
2017-08-07T03:14:57.268Z,13.04
2017-08-07T03:15:57.248Z,13.04
2017-08-07T03:16:57.223Z,13.03
2017-08-07T03:17:57.208Z,13.06
2017-08-07T03:18:57.193Z,13.04
2017-08-07T03:19:57.162Z,12.99
2017-08-07T03:20:57.140Z,13.01
2017-08-07T03:21:57.125Z,13.03
2017-08-07T03:22:57.104Z,12.99
2017-08-07T03:23:56.768Z,13.03
2017-08-07T03:24:57.049Z,12.96
2017-08-07T03:25:57.040Z,13.01
2017-08-07T03:26:57.014Z,13.03
2017-08-07T03:27:56.988Z,12.99
2017-08-07T03:28:56.966Z,13.03
2017-08-07T03:29:56.945Z,13.01
2017-08-07T03:30:56.938Z,13.07
2017-08-07T03:31:56.899Z,12.99
2017-08-07T03:32:56.876Z,12.98
2017-08-07T03:33:56.904Z,12.99
2017-08-07T03:34:56.833Z,12.98
2017-08-07T03:35:56.818Z,13.01
2017-08-07T03:36:56.490Z,12.92
2017-08-07T03:37:56.774Z,12.89
2017-08-07T03:38:56.753Z,12.87
2017-08-07T03:39:56.733Z,12.91
2017-08-07T03:40:56.401Z,12.88
2017-08-07T03:41:56.683Z,12.87
2017-08-07T03:42:56.661Z,12.87
2017-08-07T03:43:56.644Z,12.73
2017-08-07T03:44:56.322Z,12.81
2017-08-07T03:45:56.293Z,12.8
2017-08-07T03:46:56.284Z,12.74
2017-08-07T03:47:56.559Z,12.67
2017-08-07T03:48:56.534Z,12.77
2017-08-07T03:49:56.507Z,12.73
2017-08-07T03:50:56.196Z,12.71
2017-08-07T03:51:56.470Z,12.73
2017-08-07T03:52:56.441Z,12.76
2017-08-07T03:53:56.419Z,12.7
2017-08-07T03:54:56.401Z,12.69
2017-08-07T03:55:56.078Z,12.67
2017-08-07T03:56:56.357Z,12.71
2017-08-07T03:57:56.337Z,12.66
2017-08-07T03:58:56.308Z,12.63
2017-08-07T03:59:56.298Z,12.69
2017-08-07T04:00:56.324Z,12.61
2017-08-07T04:01:55.942Z,12.62
2017-08-07T04:02:56.224Z,12.7
2017-08-07T04:03:56.199Z,12.67
2017-08-07T04:04:56.187Z,12.69
2017-08-07T04:05:56.159Z,12.71
2017-08-07T04:06:56.148Z,12.73
2017-08-07T04:07:56.165Z,12.7
2017-08-07T04:08:56.096Z,12.71
2017-08-07T04:09:56.068Z,12.7
2017-08-07T04:10:56.056Z,12.7
2017-08-07T04:11:56.060Z,12.69
2017-08-07T04:12:56.253Z,12.7
2017-08-07T04:13:55.983Z,12.67
2017-08-07T04:14:55.961Z,12.69
2017-08-07T04:15:55.947Z,12.62
2017-08-07T04:16:55.921Z,12.63
2017-08-07T04:17:55.905Z,12.67
2017-08-07T04:18:55.632Z,12.69
2017-08-07T04:19:55.851Z,12.66
2017-08-07T04:20:55.829Z,12.73
2017-08-07T04:21:55.808Z,12.66
2017-08-07T04:22:55.787Z,12.8
2017-08-07T04:23:55.824Z,12.76
2017-08-07T04:24:55.751Z,12.88
2017-08-07T04:25:55.775Z,13.03
2017-08-07T04:26:55.702Z,13.06
2017-08-07T04:27:55.681Z,13.14
2017-08-07T04:28:55.661Z,13.16
2017-08-07T04:29:55.635Z,13.22
2017-08-07T04:30:55.623Z,13.27
2017-08-07T04:31:55.594Z,13.44
2017-08-07T04:32:55.568Z,13.51
2017-08-07T04:33:55.247Z,13.65
2017-08-07T04:34:55.522Z,13.71
2017-08-07T04:35:55.517Z,13.73
2017-08-07T04:36:55.485Z,13.83
2017-08-07T04:37:55.172Z,13.99
2017-08-07T04:38:55.440Z,14.01
2017-08-07T04:39:55.476Z,14.06
2017-08-07T04:40:55.402Z,14.2
2017-08-07T04:41:55.378Z,14.3
2017-08-07T04:42:55.356Z,14.35
2017-08-07T04:43:55.036Z,14.45
2017-08-07T04:44:55.322Z,14.52
2017-08-07T04:45:55.343Z,14.61
2017-08-07T04:46:54.966Z,14.6
2017-08-07T04:47:55.252Z,14.79
2017-08-07T04:48:55.233Z,14.78
2017-08-07T04:49:55.208Z,14.87
2017-08-07T04:50:55.186Z,15.09
2017-08-07T04:51:55.168Z,15.07
2017-08-07T04:52:55.196Z,15.19
2017-08-07T04:53:55.125Z,15.18
2017-08-07T04:54:55.105Z,15.28
2017-08-07T04:55:55.085Z,15.44
2017-08-07T04:56:55.072Z,15.49
2017-08-07T04:57:55.046Z,15.67
2017-08-07T04:58:54.719Z,15.74
2017-08-07T04:59:55.002Z,15.84
2017-08-07T05:00:54.979Z,15.85
2017-08-07T05:01:54.961Z,15.96
2017-08-07T05:02:54.942Z,16.06
2017-08-07T05:03:54.923Z,16.1
2017-08-07T05:04:54.900Z,16.25
2017-08-07T05:05:54.876Z,16.25
2017-08-07T05:06:54.858Z,16.29
2017-08-07T05:07:54.840Z,16.48
2017-08-07T05:08:54.821Z,16.69
2017-08-07T05:09:54.815Z,16.75
2017-08-07T05:10:54.797Z,16.88
2017-08-07T05:11:54.811Z,16.96
2017-08-07T05:12:54.748Z,17.02
2017-08-07T05:13:54.719Z,17.17
2017-08-07T05:14:54.696Z,17.27
2017-08-07T05:15:54.682Z,17.45
2017-08-07T05:16:54.663Z,17.53
2017-08-07T05:17:54.643Z,17.73
2017-08-07T05:18:54.628Z,17.81
2017-08-07T05:19:54.653Z,17.83
2017-08-07T05:20:54.589Z,17.83
2017-08-07T05:21:54.613Z,17.99
2017-08-07T05:22:54.546Z,18.04
2017-08-07T05:23:54.531Z,18.05
2017-08-07T05:24:54.257Z,18.17
2017-08-07T05:25:54.538Z,18.35
2017-08-07T05:26:54.474Z,18.32
2017-08-07T05:27:54.454Z,18.38
2017-08-07T05:28:54.445Z,18.44
2017-08-07T05:29:54.420Z,18.59
2017-08-07T05:30:54.394Z,18.66
2017-08-07T05:31:54.381Z,18.78
2017-08-07T05:32:54.356Z,18.94
2017-08-07T05:33:54.344Z,19.09
2017-08-07T05:34:54.339Z,19.21
2017-08-07T05:35:54.321Z,19.39
2017-08-07T05:36:54.289Z,19.43
2017-08-07T05:37:54.276Z,19.62
2017-08-07T05:38:54.268Z,19.6
2017-08-07T05:39:54.251Z,19.49
2017-08-07T05:40:54.210Z,19.45
2017-08-07T05:41:54.199Z,19.25
2017-08-07T05:42:54.186Z,19.2
2017-08-07T05:43:54.153Z,19.16
2017-08-07T05:44:54.189Z,19.28
2017-08-07T05:45:54.130Z,19.35
2017-08-07T05:46:54.114Z,19.45
2017-08-07T05:48:08.700Z,19.28
2017-08-07T05:48:54.071Z,19.23
2017-08-07T05:49:54.057Z,19.27
2017-08-07T05:50:54.051Z,19.25
2017-08-07T05:51:54.021Z,19.32
2017-08-07T05:52:53.999Z,19.47
2017-08-07T05:53:53.997Z,19.6
2017-08-07T05:54:53.974Z,19.68
2017-08-07T05:55:53.948Z,19.75
2017-08-07T05:56:53.929Z,19.82
2017-08-07T05:57:53.912Z,20.07
2017-08-07T05:58:53.898Z,20.2
2017-08-07T05:59:53.883Z,20.19
2017-08-07T06:00:53.864Z,20.26
2017-08-07T06:01:53.895Z,20.35
2017-08-07T06:02:53.833Z,20.5
2017-08-07T06:03:53.816Z,20.69
2017-08-07T06:04:53.807Z,20.76
2017-08-07T06:05:53.779Z,20.88
2017-08-07T06:06:53.787Z,21.09
2017-08-07T06:07:53.747Z,21.12
2017-08-07T06:08:53.734Z,21.26
2017-08-07T06:09:53.713Z,21.45
2017-08-07T06:10:53.407Z,21.48
2017-08-07T06:11:53.684Z,21.68
2017-08-07T06:12:53.671Z,21.86
2017-08-07T06:13:53.652Z,22.14
2017-08-07T06:14:53.635Z,22.36
2017-08-07T06:15:53.612Z,22.42
2017-08-07T06:16:53.611Z,22.45
2017-08-07T06:17:53.581Z,22.63
2017-08-07T06:18:53.268Z,22.61
2017-08-07T06:19:53.557Z,22.75
2017-08-07T06:20:53.544Z,22.81
2017-08-07T06:21:53.522Z,22.91
2017-08-07T06:22:53.217Z,23.06
2017-08-07T06:23:53.488Z,23.18
2017-08-07T06:24:53.471Z,23.26
2017-08-07T06:25:53.162Z,23.53
2017-08-07T06:26:53.154Z,23.6
2017-08-07T06:27:53.443Z,23.59
2017-08-07T06:28:53.418Z,23.74
2017-08-07T06:29:53.405Z,23.64
2017-08-07T06:30:53.393Z,23.63
2017-08-07T06:31:53.378Z,23.6
2017-08-07T06:32:53.363Z,23.89
2017-08-07T06:33:53.350Z,24.11
2017-08-07T06:34:53.337Z,24.15
2017-08-07T06:35:53.322Z,24.23
2017-08-07T06:36:53.308Z,24.34
2017-08-07T06:37:53.291Z,24.49
2017-08-07T06:38:53.284Z,24.7
2017-08-07T06:39:53.266Z,24.92
2017-08-07T06:40:53.281Z,25.05
2017-08-07T06:41:53.244Z,25.19
2017-08-07T06:42:52.923Z,25.41
2017-08-07T06:43:53.216Z,25.57
2017-08-07T06:44:53.206Z,25.35
2017-08-07T06:45:53.189Z,25.07
2017-08-07T06:46:53.183Z,24.67
2017-08-07T06:47:53.162Z,24.31
2017-08-07T06:48:53.146Z,24.04
2017-08-07T06:49:53.137Z,23.89
2017-08-07T06:50:53.127Z,23.69
2017-08-07T06:51:53.115Z,23.44
2017-08-07T06:52:53.090Z,23.23
2017-08-07T06:53:53.084Z,23.03
2017-08-07T06:54:53.068Z,23.01
2017-08-07T06:55:53.050Z,22.93
2017-08-07T06:56:53.032Z,22.81
2017-08-07T06:57:53.020Z,22.7
2017-08-07T06:58:53.009Z,22.56
2017-08-07T06:59:52.994Z,22.49
2017-08-07T07:00:53.008Z,22.36
2017-08-07T07:01:53.016Z,22.23
2017-08-07T07:02:52.949Z,22.14
2017-08-07T07:03:52.943Z,21.98
2017-08-07T07:04:52.915Z,21.98
2017-08-07T07:05:52.593Z,22.09
2017-08-07T07:06:52.902Z,22.35
2017-08-07T07:07:52.574Z,22.42
2017-08-07T07:08:52.859Z,22.41
2017-08-07T07:09:52.842Z,22.35
2017-08-07T07:10:52.821Z,22.31
2017-08-07T07:11:52.508Z,22.24
2017-08-07T07:12:52.788Z,22.11
2017-08-07T07:13:52.782Z,22.08
2017-08-07T07:14:52.765Z,22.05
2017-08-07T07:15:52.751Z,22.29
2017-08-07T07:16:52.730Z,22.48
2017-08-07T07:17:52.410Z,22.88
2017-08-07T07:18:52.391Z,23.32
2017-08-07T07:19:52.686Z,23.68
2017-08-07T07:20:52.670Z,24.04
2017-08-07T07:21:52.646Z,24.24
2017-08-07T07:22:52.636Z,24.66
2017-08-07T07:23:52.626Z,24.92
2017-08-07T07:24:52.620Z,25.19
2017-08-07T07:25:52.596Z,25.31
2017-08-07T07:26:52.579Z,25.44
2017-08-07T07:27:52.567Z,25.72
2017-08-07T07:28:52.555Z,25.86
2017-08-07T07:29:52.548Z,26.04
2017-08-07T07:30:52.542Z,26.01
2017-08-07T07:31:52.561Z,26.29
2017-08-07T07:32:52.512Z,26.57
2017-08-07T07:33:52.197Z,26.64
2017-08-07T07:34:52.486Z,26.81
2017-08-07T07:35:52.474Z,27.06
2017-08-07T07:36:52.454Z,27.34
2017-08-07T07:37:52.446Z,27.4
2017-08-07T07:38:52.441Z,27.39
2017-08-07T07:39:52.427Z,27.43
2017-08-07T07:40:52.422Z,27.3
2017-08-07T07:41:52.407Z,27.16
2017-08-07T07:42:52.756Z,27.01
2017-08-07T07:43:52.378Z,26.66
2017-08-07T07:44:52.375Z,26.31
2017-08-07T07:45:52.364Z,25.98
2017-08-07T07:46:52.359Z,25.64
2017-08-07T07:47:52.346Z,25.46
2017-08-07T07:48:52.352Z,25.51
2017-08-07T07:49:52.319Z,25.48
2017-08-07T07:50:52.026Z,25.75
2017-08-07T07:51:52.307Z,25.89
2017-08-07T07:52:52.283Z,25.86
2017-08-07T07:53:52.270Z,26.06
2017-08-07T07:54:52.259Z,26.21
2017-08-07T07:55:51.952Z,26.6
2017-08-07T07:56:52.255Z,26.81
2017-08-07T07:57:52.229Z,27.11
2017-08-07T07:58:52.222Z,27.33
2017-08-07T07:59:52.205Z,27.49
2017-08-07T08:00:52.193Z,27.4
2017-08-07T08:01:52.185Z,27.48
2017-08-07T08:02:52.188Z,27.65
2017-08-07T08:03:52.169Z,28.06
2017-08-07T08:04:52.193Z,28.61
2017-08-07T08:05:52.146Z,29.14
2017-08-07T08:06:52.145Z,29.32
2017-08-07T08:07:52.376Z,29.45
2017-08-07T08:08:52.118Z,29.42
2017-08-07T08:09:52.111Z,29.69
2017-08-07T08:10:52.108Z,30.07
2017-08-07T08:11:52.101Z,30.32
2017-08-07T08:12:51.795Z,30.36
2017-08-07T08:13:52.074Z,30.21
2017-08-07T08:14:52.081Z,30.25
2017-08-07T08:15:52.070Z,30.23
2017-08-07T08:16:52.091Z,30.34
2017-08-07T08:17:52.049Z,30.32
2017-08-07T08:18:52.045Z,30.42
2017-08-07T08:19:52.049Z,30.56
2017-08-07T08:20:52.038Z,30.61
2017-08-07T08:21:51.770Z,30.78
2017-08-07T08:22:52.017Z,30.7
2017-08-07T08:23:51.711Z,30.88
2017-08-07T08:24:51.997Z,31.01
2017-08-07T08:25:51.998Z,31.16
2017-08-07T08:26:51.989Z,31.31
2017-08-07T08:27:51.985Z,31.34
2017-08-07T08:28:52.039Z,31.22
2017-08-07T08:30:06.576Z,31.19
2017-08-07T08:30:51.964Z,31.3
2017-08-07T08:31:51.956Z,31.57
2017-08-07T08:32:51.945Z,31.9
2017-08-07T08:33:51.950Z,31.91
2017-08-07T08:34:51.990Z,32.05
2017-08-07T08:35:51.987Z,31.97
2017-08-07T08:36:51.926Z,31.99
2017-08-07T08:37:51.923Z,31.98
2017-08-07T08:38:51.918Z,32.05
2017-08-07T08:39:52.116Z,31.78
2017-08-07T08:40:51.903Z,31.87
2017-08-07T08:41:51.895Z,32.07
2017-08-07T08:42:51.607Z,32.53
2017-08-07T08:43:51.882Z,32.77
2017-08-07T08:44:51.880Z,32.9
2017-08-07T08:45:51.872Z,32.99
2017-08-07T08:46:51.875Z,32.99
2017-08-07T08:47:51.865Z,32.85
2017-08-07T08:48:51.854Z,32.54
2017-08-07T08:49:51.844Z,32.56
2017-08-07T08:50:51.857Z,32.72
2017-08-07T08:51:51.839Z,32.91
2017-08-07T08:52:52.252Z,33.17
2017-08-07T08:53:51.838Z,33.26
2017-08-07T08:54:51.822Z,33.15
2017-08-07T08:55:51.823Z,33.02
2017-08-07T08:56:51.821Z,32.68
2017-08-07T08:57:51.821Z,32.47
2017-08-07T08:58:51.806Z,32.43
2017-08-07T08:59:51.800Z,32.14
2017-08-07T09:00:51.790Z,32.05
2017-08-07T09:01:51.813Z,31.97
2017-08-07T09:02:52.092Z,32.07
2017-08-07T09:03:51.815Z,32.12
2017-08-07T09:04:51.770Z,32.06
2017-08-07T09:05:51.774Z,32.13
2017-08-07T09:06:52.025Z,32.25
2017-08-07T09:07:51.454Z,32.4
2017-08-07T09:08:51.755Z,32.59
2017-08-07T09:09:51.752Z,32.76
2017-08-07T09:10:51.750Z,32.93
2017-08-07T09:11:51.745Z,32.78
2017-08-07T09:12:51.762Z,32.68
2017-08-07T09:13:51.737Z,32.69
2017-08-07T09:14:51.736Z,32.77
2017-08-07T09:15:51.721Z,32.84
2017-08-07T09:16:51.712Z,32.66
2017-08-07T09:17:51.708Z,32.76
2017-08-07T09:18:51.697Z,32.81
2017-08-07T09:19:51.693Z,32.53
2017-08-07T09:20:51.691Z,32.25
2017-08-07T09:21:51.683Z,32.25
2017-08-07T09:22:51.688Z,32.24
2017-08-07T09:23:51.681Z,32.05
2017-08-07T09:24:51.682Z,32.14
2017-08-07T09:25:51.723Z,32.49
2017-08-07T09:26:51.665Z,32.61
2017-08-07T09:27:51.654Z,32.71
2017-08-07T09:28:51.645Z,32.72
2017-08-07T09:29:51.645Z,32.87
2017-08-07T09:30:51.652Z,32.9
2017-08-07T09:31:51.336Z,32.81
2017-08-07T09:32:51.628Z,32.88
2017-08-07T09:33:51.625Z,32.85
2017-08-07T09:34:51.620Z,32.96
2017-08-07T09:35:51.641Z,32.98
2017-08-07T09:36:51.609Z,32.9
2017-08-07T09:37:51.306Z,33.03
2017-08-07T09:38:51.602Z,32.96
2017-08-07T09:39:51.593Z,32.91
2017-08-07T09:40:51.586Z,32.98
2017-08-07T09:41:51.292Z,32.84
2017-08-07T09:42:51.584Z,32.46
2017-08-07T09:43:51.573Z,32.12
2017-08-07T09:44:51.567Z,31.99
2017-08-07T09:45:51.568Z,32.05
2017-08-07T09:46:51.561Z,32.05
2017-08-07T09:47:51.551Z,32.29
2017-08-07T09:48:51.544Z,32.34
2017-08-07T09:49:51.549Z,31.9
2017-08-07T09:50:51.534Z,31.53
2017-08-07T09:51:51.531Z,31.54
2017-08-07T09:52:51.530Z,31.37
2017-08-07T09:53:51.515Z,30.98
2017-08-07T09:54:51.523Z,31.07
2017-08-07T09:55:51.210Z,31.12
2017-08-07T09:56:51.501Z,31.47
2017-08-07T09:57:51.483Z,31.71
2017-08-07T09:58:51.481Z,31.92
2017-08-07T09:59:51.481Z,31.94
2017-08-07T10:00:51.472Z,31.97
2017-08-07T10:01:51.170Z,32.06
2017-08-07T10:02:51.466Z,32.1
2017-08-07T10:03:51.464Z,31.78
2017-08-07T10:04:51.147Z,31.41
2017-08-07T10:05:51.442Z,31.38
2017-08-07T10:06:51.487Z,31.47
2017-08-07T10:07:51.433Z,31.67
2017-08-07T10:08:51.423Z,31.72
2017-08-07T10:09:51.422Z,31.9
2017-08-07T10:10:51.110Z,31.97
2017-08-07T10:11:51.412Z,32.02
2017-08-07T10:12:51.092Z,32.31
2017-08-07T10:13:51.388Z,32.34
2017-08-07T10:14:51.390Z,32.35
2017-08-07T10:15:51.582Z,32.29
2017-08-07T10:16:51.125Z,32.05
2017-08-07T10:17:51.364Z,31.91
2017-08-07T10:18:51.352Z,31.75
2017-08-07T10:19:51.350Z,31.74
2017-08-07T10:20:51.344Z,31.68
2017-08-07T10:21:51.341Z,31.91
2017-08-07T10:22:51.355Z,32.05
2017-08-07T10:23:51.320Z,32.27
2017-08-07T10:24:51.321Z,32.43
2017-08-07T10:25:51.314Z,32.59
2017-08-07T10:26:51.307Z,32.69
2017-08-07T10:27:51.301Z,32.54
2017-08-07T10:28:51.302Z,32.69
2017-08-07T10:29:51.305Z,32.91
2017-08-07T10:30:51.336Z,32.84
2017-08-07T10:31:51.278Z,32.61
2017-08-07T10:32:51.273Z,32.53
2017-08-07T10:33:51.274Z,32.36
2017-08-07T10:34:51.261Z,32.22
2017-08-07T10:35:51.276Z,31.97
2017-08-07T10:36:51.248Z,31.91
2017-08-07T10:37:51.255Z,31.99
2017-08-07T10:38:51.239Z,31.88
2017-08-07T10:39:51.452Z,31.78
2017-08-07T10:40:51.228Z,31.64
2017-08-07T10:41:51.231Z,31.69
2017-08-07T10:42:51.223Z,31.65
2017-08-07T10:43:51.216Z,31.64
2017-08-07T10:44:51.253Z,31.62
2017-08-07T10:45:51.225Z,31.72
2017-08-07T10:46:51.192Z,31.74
2017-08-07T10:47:50.882Z,31.46
2017-08-07T10:48:51.182Z,31.16
2017-08-07T10:49:51.172Z,30.82
2017-08-07T10:50:51.164Z,30.38
2017-08-07T10:51:51.166Z,30.01
2017-08-07T10:52:51.220Z,29.71
2017-08-07T10:53:51.153Z,29.55
2017-08-07T10:54:51.162Z,29.32
2017-08-07T10:55:51.135Z,29.15
2017-08-07T10:56:51.180Z,28.94
2017-08-07T10:57:50.821Z,28.55
2017-08-07T10:58:51.113Z,28.3
2017-08-07T10:59:51.102Z,28.05
2017-08-07T11:00:51.163Z,27.9
2017-08-07T11:01:51.096Z,27.74
2017-08-07T11:02:51.090Z,27.72
2017-08-07T11:03:51.069Z,27.68
2017-08-07T11:04:51.062Z,27.65
2017-08-07T11:05:51.063Z,27.5
2017-08-07T11:06:50.757Z,27.48
2017-08-07T11:07:51.029Z,27.35
2017-08-07T11:08:51.024Z,27.34
2017-08-07T11:09:51.010Z,27.25
2017-08-07T11:10:50.702Z,27.2
2017-08-07T11:11:50.986Z,27.21
2017-08-07T11:12:50.982Z,27.2
2017-08-07T11:13:50.965Z,27.2
2017-08-07T11:14:50.952Z,27.24
2017-08-07T11:15:50.939Z,27.09
2017-08-07T11:16:50.935Z,26.86
2017-08-07T11:17:50.924Z,26.73
2017-08-07T11:18:50.914Z,26.72
2017-08-07T11:19:50.893Z,26.68
2017-08-07T11:20:50.882Z,26.46
2017-08-07T11:21:50.926Z,26.17
2017-08-07T11:22:50.554Z,26.11
2017-08-07T11:23:50.848Z,26.03
2017-08-07T11:24:50.826Z,26.06
2017-08-07T11:25:50.538Z,25.97
2017-08-07T11:26:50.797Z,25.75
2017-08-07T11:27:50.786Z,25.6
2017-08-07T11:28:50.771Z,25.51
2017-08-07T11:29:50.753Z,25.53
2017-08-07T11:30:50.498Z,25.51
2017-08-07T11:31:50.736Z,25.74
2017-08-07T11:32:50.433Z,25.85
2017-08-07T11:33:50.732Z,26.03
2017-08-07T11:34:50.707Z,26.08
2017-08-07T11:35:50.666Z,26.2
2017-08-07T11:36:50.354Z,26.28
2017-08-07T11:37:50.646Z,26.39
2017-08-07T11:38:50.647Z,26.38
2017-08-07T11:39:50.318Z,26.49
2017-08-07T11:40:50.604Z,26.59
2017-08-07T11:41:50.587Z,26.6
2017-08-07T11:42:50.617Z,26.57
2017-08-07T11:43:50.285Z,26.59
2017-08-07T11:44:50.254Z,26.65
2017-08-07T11:45:50.546Z,26.61
2017-08-07T11:46:50.238Z,26.65
2017-08-07T11:47:50.546Z,26.57
2017-08-07T11:48:50.491Z,26.49
2017-08-07T11:49:50.487Z,26.42
2017-08-07T11:50:50.465Z,26.28
2017-08-07T11:51:50.548Z,26.32
2017-08-07T11:52:50.431Z,26.27
2017-08-07T11:53:50.429Z,26.13
2017-08-07T11:54:50.175Z,26.17
2017-08-07T11:55:50.451Z,26.08
2017-08-07T11:56:50.383Z,26.01
2017-08-07T11:57:50.366Z,26.17
2017-08-07T11:58:50.359Z,26.11
2017-08-07T11:59:50.345Z,26.24
2017-08-07T12:00:50.300Z,26.27
2017-08-07T12:01:50.133Z,26.19
2017-08-07T12:02:49.982Z,26.21
2017-08-07T12:03:50.297Z,26.11
2017-08-07T12:04:50.263Z,26.11
2017-08-07T12:05:49.928Z,26.06
2017-08-07T12:06:50.261Z,26.04
2017-08-07T12:07:49.921Z,26
2017-08-07T12:08:50.199Z,25.97
2017-08-07T12:09:50.203Z,25.89
2017-08-07T12:10:50.150Z,25.98
2017-08-07T12:11:50.141Z,25.85
2017-08-07T12:12:50.133Z,25.85
2017-08-07T12:13:49.521Z,26.03
2017-08-07T12:14:50.110Z,25.97
2017-08-07T12:15:50.083Z,26.13
2017-08-07T12:16:50.071Z,26.09
2017-08-07T12:17:50.066Z,26.08
2017-08-07T12:18:50.041Z,26.03
2017-08-07T12:19:49.728Z,26.12
2017-08-07T12:20:50.017Z,26.2
2017-08-07T12:21:49.993Z,26.34
2017-08-07T12:22:49.979Z,26.42
2017-08-07T12:23:49.962Z,26.53
2017-08-07T12:24:49.955Z,26.54
2017-08-07T12:25:49.975Z,26.59
2017-08-07T12:26:49.916Z,26.66
2017-08-07T12:27:49.901Z,26.65
2017-08-07T12:28:49.884Z,26.61
2017-08-07T12:29:49.871Z,26.56
2017-08-07T12:30:49.859Z,26.6
2017-08-07T12:31:49.843Z,26.53
2017-08-07T12:32:50.119Z,26.66
2017-08-07T12:33:49.809Z,26.71
2017-08-07T12:34:49.843Z,26.71
2017-08-07T12:35:49.802Z,26.73
2017-08-07T12:36:49.804Z,26.72
2017-08-07T12:37:49.755Z,26.65
2017-08-07T12:38:49.732Z,26.51
2017-08-07T12:39:49.774Z,26.34
2017-08-07T12:40:49.707Z,26.2
2017-08-07T12:41:49.392Z,26.09
2017-08-07T12:42:49.390Z,26.03
2017-08-07T12:43:49.660Z,25.89
2017-08-07T12:44:49.355Z,25.81
2017-08-07T12:45:49.339Z,25.79
2017-08-07T12:46:49.666Z,25.86
2017-08-07T12:47:49.599Z,26
2017-08-07T12:48:49.591Z,26.01
2017-08-07T12:49:49.580Z,26.19
2017-08-07T12:50:49.555Z,26.16
2017-08-07T12:51:49.540Z,26.19
2017-08-07T12:52:49.533Z,26.12
2017-08-07T12:53:49.514Z,26.19